Time;durP1;ratioP1;P1;durP2;ratioP2;P2;SDS_P1;SDS_P2;PMS_P1;PMS_P2;Temp;Humidity;BMP_temperature;BMP_pressure;BME280_temperature;BME280_humidity;BME280_pressure;Samples;Min_cycle;Max_cycle;Signal;HPM_P1;HPM_P2
2021/09/23 04:01:46;;;;;;;53.90;10.60;;;8.70;99.70;;;;;;5049783;28;20181;-64
2021/09/23 04:04:13;;;;;;;53.97;10.17;;;8.70;99.70;;;;;;5049671;28;20216;-65
2021/09/23 04:06:43;;;;;;;58.90;10.80;;;9.20;99.70;;;;;;5049697;28;20923;-64
2021/09/23 04:09:10;;;;;;;52.73;10.80;;;9.40;99.70;;;;;;5049004;28;20471;-64
2021/09/23 04:11:36;;;;;;;53.40;10.83;;;9.10;99.70;;;;;;5049616;28;20485;-66
2021/09/23 04:14:03;;;;;;;57.30;11.40;;;9.10;99.70;;;;;;5049181;28;20455;-65
2021/09/23 04:16:30;;;;;;;56.60;11.50;;;8.90;99.70;;;;;;5049180;28;20443;-66
2021/09/23 04:18:59;;;;;;;54.00;10.93;;;8.90;99.70;;;;;;5048863;28;20889;-65
2021/09/23 04:21:26;;;;;;;50.17;9.80;;;8.80;99.70;;;;;;5049371;28;20847;-65
2021/09/23 04:23:52;;;;;;;53.00;11.13;;;8.90;99.70;;;;;;5049070;28;20444;-66
2021/09/23 04:26:19;;;;;;;54.37;11.17;;;9.10;99.70;;;;;;5049509;28;20478;-64
2021/09/23 04:28:46;;;;;;;54.80;10.90;;;9.00;99.70;;;;;;5048706;28;20471;-64
2021/09/23 04:31:13;;;;;;;55.90;11.07;;;8.90;99.70;;;;;;5049239;28;20970;-63
2021/09/23 04:33:40;;;;;;;55.43;11.43;;;9.00;99.70;;;;;;5041703;28;20444;-64
2021/09/23 04:36:08;;;;;;;54.30;11.17;;;8.90;99.70;;;;;;5059027;28;20442;-63
2021/09/23 04:38:34;;;;;;;55.83;11.30;;;9.10;99.70;;;;;;5048385;28;20474;-63
2021/09/23 04:41:01;;;;;;;53.77;11.63;;;9.00;99.70;;;;;;5056297;28;20434;-62
2021/09/23 04:43:28;;;;;;;54.77;10.30;;;8.80;99.70;;;;;;5059821;28;20456;-64
2021/09/23 04:45:55;;;;;;;52.83;11.40;;;8.80;99.70;;;;;;5052661;28;20486;-64
2021/09/23 04:48:22;;;;;;;54.30;10.87;;;8.90;99.70;;;;;;5049628;28;20474;-65
2021/09/23 04:50:49;;;;;;;53.80;10.30;;;8.90;99.70;;;;;;5045787;28;20505;-64
2021/09/23 04:53:17;;;;;;;53.40;10.83;;;8.80;99.70;;;;;;5055234;28;20446;-62
2021/09/23 04:55:44;;;;;;;56.53;10.53;;;8.60;99.70;;;;;;5054485;28;20479;-65
2021/09/23 04:58:11;;;;;;;53.90;11.00;;;8.60;99.70;;;;;;5047211;28;20460;-64
2021/09/23 05:00:37;;;;;;;54.87;10.37;;;8.60;99.70;;;;;;5047545;28;20440;-65
2021/09/23 05:03:04;;;;;;;54.83;11.63;;;8.50;99.70;;;;;;5049430;28;20447;-65
2021/09/23 05:05:31;;;;;;;51.70;10.07;;;8.50;99.70;;;;;;5042727;28;20456;-63
2021/09/23 05:07:58;;;;;;;52.70;10.30;;;9.20;99.70;;;;;;5042891;28;20472;-64
2021/09/23 05:10:26;;;;;;;53.47;10.40;;;9.00;99.70;;;;;;5044485;28;20449;-61
2021/09/23 05:12:53;;;;;;;53.60;11.50;;;8.70;99.70;;;;;;5049101;28;20518;-63
2021/09/23 05:15:19;;;;;;;57.27;11.20;;;8.60;99.70;;;;;;5045083;28;20445;-64
2021/09/23 05:17:46;;;;;;;57.10;11.60;;;9.00;99.70;;;;;;5046693;28;20895;-65
2021/09/23 05:20:14;;;;;;;55.30;11.90;;;8.80;99.70;;;;;;5046375;28;20444;-64
2021/09/23 05:22:41;;;;;;;53.87;11.33;;;8.60;99.70;;;;;;5045479;28;20815;-64
2021/09/23 05:25:09;;;;;;;53.70;11.60;;;8.40;99.70;;;;;;5038470;28;20497;-66
2021/09/23 05:27:37;;;;;;;56.03;12.13;;;8.50;99.70;;;;;;5046005;28;20487;-65
2021/09/23 05:30:06;;;;;;;55.83;12.17;;;8.50;99.70;;;;;;5040148;28;20452;-65
2021/09/23 05:32:32;;;;;;;57.60;11.30;;;8.40;99.70;;;;;;5040151;28;20440;-64
2021/09/23 05:34:59;;;;;;;56.20;11.40;;;8.40;99.70;;;;;;5044360;28;20522;-63
2021/09/23 05:37:26;;;;;;;58.40;11.30;;;8.40;99.70;;;;;;5047702;28;20482;-66
2021/09/23 05:39:53;;;;;;;56.40;10.87;;;8.40;99.70;;;;;;5047169;28;20438;-64
2021/09/23 05:42:19;;;;;;;57.83;12.30;;;8.40;99.70;;;;;;5045615;28;20444;-63
2021/09/23 05:44:47;;;;;;;55.47;10.70;;;8.40;99.70;;;;;;5037735;28;20452;-65
2021/09/23 05:47:14;;;;;;;54.70;11.50;;;8.50;99.70;;;;;;5028103;28;20849;-66
2021/09/23 05:49:41;;;;;;;53.37;10.80;;;8.60;99.70;;;;;;5027431;28;20452;-65
2021/09/23 05:52:08;;;;;;;53.60;12.10;;;8.70;99.70;;;;;;5028276;28;20991;-64
2021/09/23 05:54:35;;;;;;;54.40;12.50;;;8.90;99.70;;;;;;5039310;28;20827;-62
2021/09/23 05:57:02;;;;;;;54.50;11.70;;;8.90;99.70;;;;;;5027531;28;21000;-64
2021/09/23 05:59:28;;;;;;;57.93;11.77;;;9.00;99.70;;;;;;5033448;28;20494;-65
2021/09/23 06:01:56;;;;;;;56.00;11.63;;;8.90;99.70;;;;;;5048836;28;20444;-64
2021/09/23 06:04:24;;;;;;;55.27;11.20;;;8.80;99.70;;;;;;5051000;28;20451;-64
2021/09/23 06:06:51;;;;;;;56.03;11.20;;;8.80;99.70;;;;;;5050385;28;21033;-65
2021/09/23 06:09:18;;;;;;;55.27;10.90;;;8.80;99.70;;;;;;5050842;28;20506;-64
2021/09/23 06:11:45;;;;;;;53.10;10.97;;;9.10;99.70;;;;;;5037637;28;20456;-66
2021/09/23 06:14:12;;;;;;;52.20;10.97;;;9.30;99.70;;;;;;5042222;28;20453;-65
2021/09/23 06:16:38;;;;;;;58.53;12.03;;;9.20;99.70;;;;;;5031499;28;21046;-66
2021/09/23 06:19:07;;;;;;;61.37;12.57;;;9.00;99.70;;;;;;5031266;28;20467;-64
2021/09/23 06:21:34;;;;;;;59.80;12.03;;;8.90;99.70;;;;;;5030715;28;20475;-64
2021/09/23 06:24:01;;;;;;;55.47;11.67;;;8.70;99.70;;;;;;5030258;28;20547;-66
2021/09/23 06:26:28;;;;;;;58.17;12.60;;;8.70;99.70;;;;;;5030948;28;20570;-62
2021/09/23 06:28:55;;;;;;;58.50;12.63;;;8.80;99.70;;;;;;5030951;28;20476;-65
2021/09/23 06:31:22;;;;;;;60.37;12.67;;;8.60;99.70;;;;;;5030602;28;20797;-64
2021/09/23 06:33:48;;;;;;;61.07;12.77;;;8.70;99.70;;;;;;5028741;28;20449;-62
2021/09/23 06:36:16;;;;;;;62.57;13.03;;;8.80;99.70;;;;;;5030331;28;20445;-64
2021/09/23 06:38:43;;;;;;;60.80;12.70;;;8.80;99.70;;;;;;5031145;28;20476;-64
2021/09/23 06:41:11;;;;;;;57.83;12.20;;;8.90;99.70;;;;;;5030431;28;20198;-63
2021/09/23 06:43:38;;;;;;;56.00;12.37;;;9.40;99.70;;;;;;5041696;28;20534;-60
2021/09/23 06:46:05;;;;;;;61.13;12.10;;;9.40;99.70;;;;;;5035492;28;20834;-65
2021/09/23 06:48:31;;;;;;;63.93;14.73;;;9.20;99.70;;;;;;5045522;28;20498;-65
2021/09/23 06:50:58;;;;;;;57.67;12.43;;;9.40;99.70;;;;;;5050516;28;20439;-64
2021/09/23 06:53:26;;;;;;;59.17;12.37;;;9.30;99.70;;;;;;5048419;28;20448;-62
2021/09/23 06:55:53;;;;;;;55.47;12.03;;;9.40;99.70;;;;;;5038266;28;20451;-60
2021/09/23 06:58:19;;;;;;;60.13;13.30;;;9.50;99.70;;;;;;5030562;28;20864;-62
2021/09/23 07:00:46;;;;;;;58.80;13.20;;;9.60;99.70;;;;;;5036760;28;20998;-65
2021/09/23 07:03:13;;;;;;;56.23;11.83;;;9.90;99.70;;;;;;5029904;28;20471;-65
2021/09/23 07:05:43;;;;;;;56.93;12.17;;;10.20;99.70;;;;;;5035278;28;20452;-62
2021/09/23 07:08:09;;;;;;;57.43;12.40;;;10.10;99.70;;;;;;5038010;28;20501;-64
2021/09/23 07:10:38;;;;;;;61.27;14.30;;;10.30;99.70;;;;;;5036434;28;20451;-64
2021/09/23 07:13:04;;;;;;;57.97;14.90;;;10.60;99.70;;;;;;5036201;28;20471;-64
2021/09/23 07:15:31;;;;;;;58.57;14.80;;;10.80;99.70;;;;;;5049090;28;20443;-63
2021/09/23 07:17:58;;;;;;;62.50;15.67;;;10.90;99.70;;;;;;5038696;28;21029;-65
2021/09/23 07:20:25;;;;;;;66.10;18.70;;;11.00;99.70;;;;;;5030255;28;20499;-65
2021/09/23 07:22:52;;;;;;;58.57;16.50;;;11.00;99.70;;;;;;5029761;28;20456;-64
2021/09/23 07:25:23;;;;;;;63.83;18.90;;;11.10;99.70;;;;;;5029587;28;20498;-65
2021/09/23 07:27:51;;;;;;;61.87;15.47;;;11.20;99.70;;;;;;5029271;28;20498;-64
2021/09/23 07:30:18;;;;;;;60.30;17.47;;;11.30;99.70;;;;;;5029965;28;20970;-65
2021/09/23 07:32:45;;;;;;;62.80;18.40;;;11.40;99.70;;;;;;5029479;28;20453;-65
2021/09/23 07:35:13;;;;;;;59.00;17.50;;;11.50;99.70;;;;;;5027194;28;20850;-64
2021/09/23 07:37:40;;;;;;;60.70;17.93;;;11.60;99.70;;;;;;5030335;28;20991;-64
2021/09/23 07:40:09;;;;;;;58.07;16.77;;;11.60;99.70;;;;;;5071915;22;20506;-68
2021/09/23 07:42:36;;;;;;;67.90;22.20;;;11.70;99.70;;;;;;5045316;28;20498;-65
2021/09/23 07:45:07;;;;;;;67.43;21.13;;;11.90;99.70;;;;;;5040163;28;20443;-68
2021/09/23 07:47:34;;;;;;;62.33;20.80;;;12.10;99.70;;;;;;5049185;28;21002;-68
2021/09/23 07:50:00;;;;;;;64.17;22.20;;;12.30;99.70;;;;;;5044680;28;20835;-66
2021/09/23 07:52:27;;;;;;;60.20;22.13;;;12.80;99.70;;;;;;5027490;28;20889;-66
2021/09/23 07:54:55;;;;;;;60.53;23.27;;;13.10;99.70;;;;;;5028355;28;20441;-67
2021/09/23 07:57:22;;;;;;;67.03;23.30;;;13.30;99.70;;;;;;5028261;28;20539;-67
2021/09/23 07:59:49;;;;;;;60.30;22.20;;;13.30;99.70;;;;;;5028326;28;20464;-66
2021/09/23 08:02:17;;;;;;;61.53;21.30;;;13.30;99.70;;;;;;5028811;28;20452;-69
2021/09/23 08:04:44;;;;;;;58.53;21.10;;;13.40;99.70;;;;;;5028579;28;20449;-64
2021/09/23 08:07:14;;;;;;;55.60;18.60;;;13.60;99.70;;;;;;5028908;28;21368;-68
2021/09/23 08:09:41;;;;;;;59.30;20.13;;;13.70;99.70;;;;;;5032792;28;20468;-67
2021/09/23 08:12:09;;;;;;;56.10;20.03;;;13.70;99.70;;;;;;5030305;28;20471;-69
2021/09/23 08:14:36;;;;;;;58.23;19.63;;;13.70;99.70;;;;;;5036175;28;20439;-68
2021/09/23 08:17:04;;;;;;;55.23;18.70;;;13.60;99.70;;;;;;5048665;28;20450;-68
2021/09/23 08:19:32;;;;;;;55.93;20.33;;;13.70;99.70;;;;;;5047925;28;20852;-68
2021/09/23 08:21:59;;;;;;;54.47;17.50;;;13.80;99.70;;;;;;5029500;28;20487;-67
2021/09/23 08:24:26;;;;;;;60.40;19.10;;;13.80;99.70;;;;;;5032455;28;20449;-67
2021/09/23 08:26:53;;;;;;;60.60;19.93;;;13.80;99.70;;;;;;5028946;28;20481;-67
2021/09/23 08:29:19;;;;;;;57.90;20.53;;;13.80;99.70;;;;;;5027704;28;21180;-65
2021/09/23 08:31:46;;;;;;;58.80;23.73;;;13.80;99.70;;;;;;5028536;28;20449;-68
2021/09/23 08:34:13;;;;;;;54.10;19.17;;;13.70;99.70;;;;;;5025374;28;20468;-67
2021/09/23 08:36:41;;;;;;;56.67;19.33;;;14.10;99.70;;;;;;5028628;28;20483;-66
2021/09/23 08:39:08;;;;;;;55.13;19.50;;;14.40;99.70;;;;;;5027706;28;20488;-67
2021/09/23 08:41:34;;;;;;;55.70;20.03;;;14.60;99.70;;;;;;5028239;28;20444;-67
2021/09/23 08:44:02;;;;;;;58.03;21.80;;;14.50;99.70;;;;;;5030507;28;20490;-66
2021/09/23 08:46:33;;;;;;;53.47;20.90;;;14.50;99.70;;;;;;5048175;28;20539;-67
2021/09/23 08:49:00;;;;;;;57.40;21.63;;;14.60;99.70;;;;;;5047830;28;21094;-66
2021/09/23 08:51:28;;;;;;;54.50;19.33;;;14.80;99.70;;;;;;5033305;28;20499;-67
2021/09/23 08:53:56;;;;;;;56.80;23.30;;;14.80;99.70;;;;;;5019593;28;20464;-67
2021/09/23 08:56:23;;;;;;;53.83;18.70;;;14.70;99.70;;;;;;5028324;28;20491;-67
2021/09/23 08:58:50;;;;;;;54.20;18.20;;;14.80;99.70;;;;;;5027758;28;20461;-67
2021/09/23 09:01:18;;;;;;;54.70;20.10;;;14.80;99.70;;;;;;5027516;28;20857;-68
2021/09/23 09:03:46;;;;;;;56.03;20.33;;;14.80;99.70;;;;;;5027960;28;20555;-67
2021/09/23 09:06:14;;;;;;;54.37;20.03;;;14.80;99.70;;;;;;5028009;28;20448;-67
2021/09/23 09:08:43;;;;;;;53.00;19.47;;;14.90;99.70;;;;;;5027250;28;21039;-68
2021/09/23 09:11:13;;;;;;;50.07;16.13;;;15.10;99.70;;;;;;5028160;28;20455;-68
2021/09/23 09:13:42;;;;;;;52.33;14.83;;;15.10;99.70;;;;;;5027891;28;20794;-66
2021/09/23 09:16:11;;;;;;;53.40;15.27;;;15.20;99.70;;;;;;5047328;28;20458;-67
2021/09/23 09:18:38;;;;;;;48.03;12.50;;;15.50;99.70;;;;;;5047451;28;20443;-68
2021/09/23 09:21:09;;;;;;;51.30;14.03;;;15.80;99.70;;;;;;5036058;28;20445;-67
2021/09/23 09:23:41;;;;;;;46.77;14.03;;;16.70;99.70;;;;;;5028105;28;20451;-68
2021/09/23 09:26:09;;;;;;;45.13;9.03;;;17.40;99.70;;;;;;5028480;28;20477;-67
2021/09/23 09:28:47;;;;;;;42.33;8.10;;;18.40;99.70;;;;;;5027347;28;20480;-68
2021/09/23 09:31:14;;;;;;;46.37;10.27;;;18.90;99.70;;;;;;5028632;28;20447;-68
2021/09/23 09:33:43;;;;;;;43.27;9.00;;;19.60;99.70;;;;;;5028143;28;20467;-68
2021/09/23 09:36:27;;;;;;;44.57;10.30;;;20.20;99.70;;;;;;5027534;28;21250;-68
2021/09/23 09:38:55;;;;;;;44.73;10.50;;;20.10;99.70;;;;;;5031429;28;20575;-68
2021/09/23 09:41:24;;;;;;;44.47;10.10;;;20.70;99.70;;;;;;5031418;28;20446;-68
2021/09/23 09:43:52;;;;;;;42.87;9.20;;;20.60;99.70;;;;;;5031038;28;20538;-67
2021/09/23 09:46:27;;;;;;;41.50;9.00;;;21.10;99.60;;;;;;5031463;28;20463;-67
2021/09/23 09:48:54;;;;;;;43.80;9.07;;;21.20;99.70;;;;;;5031196;28;20872;-68
2021/09/23 09:51:34;;;;;;;41.23;9.10;;;20.80;99.70;;;;;;5031458;28;20497;-69
2021/09/23 09:54:03;;;;;;;45.73;8.90;;;20.30;99.70;;;;;;5016094;28;20479;-68
2021/09/23 09:56:30;;;;;;;42.43;9.40;;;19.60;99.70;;;;;;5030944;28;20452;-68
2021/09/23 09:59:13;;;;;;;44.07;9.40;;;19.00;99.70;;;;;;5030887;28;20536;-67
2021/09/23 10:01:41;;;;;;;44.37;10.50;;;18.70;99.70;;;;;;5030891;28;21016;-67
2021/09/23 10:04:10;;;;;;;44.90;9.43;;;18.30;99.70;;;;;;5031112;28;20452;-68
2021/09/23 10:06:39;;;;;;;41.47;8.80;;;18.20;99.70;;;;;;5031037;28;20536;-67
2021/09/23 10:09:06;;;;;;;44.33;8.93;;;18.00;99.70;;;;;;5030834;28;20538;-68
2021/09/23 10:11:34;;;;;;;42.50;8.73;;;17.80;99.70;;;;;;5030970;28;20911;-67
2021/09/23 10:14:02;;;;;;;44.40;9.20;;;17.80;99.70;;;;;;5030292;28;20863;-68
2021/09/23 10:16:31;;;;;;;45.30;10.03;;;17.80;99.70;;;;;;5030893;28;20437;-67
2021/09/23 10:18:58;;;;;;;44.60;8.03;;;17.60;99.70;;;;;;5030192;28;20461;-68
2021/09/23 10:21:25;;;;;;;43.60;7.20;;;17.60;99.70;;;;;;5030610;28;20496;-68
2021/09/23 10:23:53;;;;;;;46.93;8.07;;;17.60;99.70;;;;;;5029747;28;20824;-68
2021/09/23 10:26:24;;;;;;;44.80;8.20;;;17.50;99.70;;;;;;5030779;28;20452;-67
2021/09/23 10:28:52;;;;;;;45.20;8.27;;;17.60;99.70;;;;;;5029888;28;20546;-68
2021/09/23 10:31:21;;;;;;;46.87;9.43;;;17.60;99.70;;;;;;5030076;28;20456;-67
2021/09/23 10:33:52;;;;;;;44.40;8.87;;;17.60;99.70;;;;;;5029593;28;20566;-66
2021/09/23 10:36:20;;;;;;;44.50;9.07;;;17.60;99.70;;;;;;5029468;28;21066;-68
2021/09/23 10:38:47;;;;;;;45.27;9.27;;;17.50;99.70;;;;;;5030097;28;20453;-68
2021/09/23 10:41:14;;;;;;;44.13;9.83;;;17.50;99.70;;;;;;5029946;28;21023;-67
2021/09/23 10:43:42;;;;;;;45.33;9.20;;;17.40;99.70;;;;;;5030034;28;20449;-68
2021/09/23 10:46:11;;;;;;;48.63;9.60;;;17.40;99.70;;;;;;5039402;28;20529;-67
2021/09/23 10:48:39;;;;;;;43.83;10.50;;;17.50;99.70;;;;;;5049703;28;20601;-67
2021/09/23 10:51:09;;;;;;;42.50;8.90;;;17.50;99.70;;;;;;5029732;28;20453;-67
2021/09/23 10:53:37;;;;;;;43.90;9.87;;;17.50;99.70;;;;;;5030040;28;20445;-68
2021/09/23 10:56:05;;;;;;;46.40;10.20;;;17.50;99.70;;;;;;5030366;28;21078;-68
2021/09/23 10:58:32;;;;;;;46.60;8.80;;;17.60;99.70;;;;;;5029677;28;20445;-67
2021/09/23 11:00:59;;;;;;;44.83;8.73;;;17.70;99.70;;;;;;5030242;28;20457;-68
2021/09/23 11:03:32;;;;;;;42.60;9.50;;;17.80;99.70;;;;;;5029708;28;20873;-68
2021/09/23 11:06:06;;;;;;;45.00;9.60;;;17.60;99.70;;;;;;5029574;28;20445;-68
2021/09/23 11:08:38;;;;;;;44.53;9.23;;;17.60;99.70;;;;;;5029199;28;20461;-67
2021/09/23 11:11:07;;;;;;;43.50;7.93;;;17.70;99.70;;;;;;5030102;28;20449;-68
2021/09/23 11:13:35;;;;;;;43.13;8.87;;;17.70;99.70;;;;;;5029189;28;20457;-67
2021/09/23 11:16:04;;;;;;;43.60;9.27;;;17.70;99.70;;;;;;5029333;28;20563;-68
2021/09/23 11:18:31;;;;;;;45.27;9.90;;;17.80;99.70;;;;;;5009320;28;20445;-68
2021/09/23 11:21:00;;;;;;;45.27;9.37;;;17.70;99.70;;;;;;5028441;28;21130;-68
2021/09/23 11:23:28;;;;;;;44.10;8.77;;;17.50;99.70;;;;;;5029105;28;20455;-68
2021/09/23 11:25:56;;;;;;;46.27;8.73;;;17.70;99.70;;;;;;5029220;28;20511;-68
2021/09/23 11:28:23;;;;;;;44.80;9.73;;;17.80;99.70;;;;;;5029485;28;20484;-66
2021/09/23 11:30:52;;;;;;;43.73;9.07;;;17.70;99.70;;;;;;5028740;28;20468;-68
2021/09/23 11:33:22;;;;;;;43.90;9.90;;;17.90;99.70;;;;;;5029849;28;21287;-69
2021/09/23 11:35:49;;;;;;;42.50;8.43;;;17.90;99.70;;;;;;5027449;28;21108;-68
2021/09/23 11:38:19;;;;;;;43.10;8.73;;;18.00;99.70;;;;;;5029235;28;20978;-68
2021/09/23 11:40:48;;;;;;;43.43;8.00;;;18.10;99.70;;;;;;5028140;28;20578;-67
2021/09/23 11:43:19;;;;;;;41.83;8.20;;;18.20;99.70;;;;;;5029373;28;20872;-68
2021/09/23 11:45:47;;;;;;;40.60;6.23;;;18.10;99.70;;;;;;5027798;28;20456;-68
2021/09/23 11:48:17;;;;;;;38.63;4.87;;;18.30;99.70;;;;;;5049519;28;20479;-69
2021/09/23 11:50:46;;;;;;;38.73;5.17;;;18.40;99.70;;;;;;5048613;28;20847;-68
2021/09/23 11:53:17;;;;;;;40.73;6.07;;;18.40;99.70;;;;;;5046979;28;20937;-68
2021/09/23 11:55:54;;;;;;;39.13;5.33;;;18.30;99.70;;;;;;5029501;28;20884;-69
2021/09/23 11:58:23;;;;;;;38.67;5.00;;;18.30;99.70;;;;;;5027720;28;20433;-66
2021/09/23 12:00:51;;;;;;;42.87;5.43;;;18.60;99.70;;;;;;5028424;28;20475;-68
2021/09/23 12:03:21;;;;;;;39.40;5.00;;;18.70;99.70;;;;;;5029139;28;20829;-68
2021/09/23 12:05:49;;;;;;;39.90;5.40;;;18.80;99.70;;;;;;5028830;28;20454;-68
2021/09/23 12:08:18;;;;;;;39.70;5.07;;;18.90;99.70;;;;;;5028831;28;20530;-68
2021/09/23 12:10:50;;;;;;;39.07;5.23;;;18.90;99.70;;;;;;5028549;28;21030;-68
2021/09/23 12:16:02;;;;;;;38.40;5.47;;;18.90;99.70;;;;;;5024669;28;20515;-67
2021/09/23 12:18:31;;;;;;;39.20;4.83;;;18.80;99.70;;;;;;5028352;28;20448;-68
2021/09/23 12:20:59;;;;;;;39.13;5.20;;;18.70;99.70;;;;;;5028993;28;20441;-68
2021/09/23 12:23:31;;;;;;;38.30;4.70;;;18.70;99.70;;;;;;5028527;28;20444;-68
2021/09/23 12:26:10;;;;;;;39.00;4.77;;;18.90;99.70;;;;;;5028529;28;20452;-68
2021/09/23 12:28:41;;;;;;;39.10;4.90;;;18.80;99.70;;;;;;5028474;28;20480;-68
2021/09/23 12:31:12;;;;;;;38.90;5.07;;;18.90;99.70;;;;;;5028511;28;20496;-68
2021/09/23 12:33:51;;;;;;;39.37;5.30;;;19.00;99.70;;;;;;5028222;28;21012;-68
2021/09/23 12:36:19;;;;;;;39.10;5.10;;;18.90;99.70;;;;;;5028369;28;20452;-68
2021/09/23 12:38:46;;;;;;;38.97;4.80;;;18.90;99.70;;;;;;5028048;28;20449;-67
2021/09/23 12:41:18;;;;;;;37.80;4.10;;;19.20;99.70;;;;;;5020972;28;20460;-68
2021/09/23 12:43:45;;;;;;;40.10;4.43;;;19.10;99.70;;;;;;5028377;28;20444;-68
2021/09/23 12:46:14;;;;;;;38.77;4.83;;;19.00;99.70;;;;;;5028221;28;20455;-68
2021/09/23 12:48:42;;;;;;;38.47;5.07;;;18.80;99.70;;;;;;5027730;28;20480;-68
2021/09/23 12:51:09;;;;;;;40.20;4.80;;;18.70;99.70;;;;;;5046035;28;20440;-68
2021/09/23 12:53:36;;;;;;;38.50;4.70;;;18.90;99.70;;;;;;5034577;28;20459;-68
2021/09/23 12:56:03;;;;;;;42.23;4.67;;;19.00;99.70;;;;;;5028273;28;20453;-68
2021/09/23 12:58:29;;;;;;;37.60;4.50;;;19.00;99.60;;;;;;5027266;28;20467;-68
2021/09/23 13:00:56;;;;;;;39.47;4.90;;;18.90;99.70;;;;;;5028762;28;20452;-68
2021/09/23 13:03:31;;;;;;;39.70;6.40;;;18.80;99.70;;;;;;5028011;28;20502;-68
2021/09/23 13:06:06;;;;;;;39.17;5.20;;;18.80;99.70;;;;;;5028816;28;20444;-68
2021/09/23 13:08:42;;;;;;;40.00;5.43;;;19.10;99.30;;;;;;5027883;28;20498;-67
2021/09/23 13:11:11;;;;;;;38.50;4.80;;;19.30;98.00;;;;;;5030640;28;20522;-68
2021/09/23 13:13:39;;;;;;;39.30;5.40;;;19.30;99.00;;;;;;5031731;28;20979;-68
2021/09/23 13:16:06;;;;;;;40.00;4.73;;;19.10;98.50;;;;;;5031771;28;20536;-68
2021/09/23 13:18:34;;;;;;;39.73;5.00;;;19.10;99.00;;;;;;5030739;28;20437;-68
2021/09/23 13:21:03;;;;;;;38.60;4.73;;;19.10;99.70;;;;;;5046823;28;20444;-68
2021/09/23 13:23:31;;;;;;;40.80;5.13;;;19.30;99.20;;;;;;5040607;28;20465;-68
2021/09/23 13:26:00;;;;;;;37.43;4.53;;;19.30;97.60;;;;;;5032332;28;20451;-68
2021/09/23 13:28:29;;;;;;;39.20;5.03;;;19.20;99.60;;;;;;5031577;28;20521;-68
2021/09/23 13:30:57;;;;;;;38.37;4.73;;;19.10;99.70;;;;;;5024770;28;20513;-68
2021/09/23 13:33:24;;;;;;;38.07;4.70;;;19.10;98.70;;;;;;5012228;28;20441;-68
2021/09/23 13:35:52;;;;;;;38.87;4.70;;;19.10;99.70;;;;;;5019823;28;20459;-68
2021/09/23 13:38:19;;;;;;;38.17;4.83;;;19.10;99.70;;;;;;5031899;28;20452;-67
2021/09/23 13:40:46;;;;;;;38.17;4.80;;;19.10;99.70;;;;;;5060763;22;20476;-63
2021/09/23 13:43:13;;;;;;;39.60;5.13;;;19.00;99.70;;;;;;5051497;28;20516;-63
2021/09/23 13:45:40;;;;;;;39.17;4.47;;;19.00;99.70;;;;;;5044268;28;20436;-63
2021/09/23 13:48:08;;;;;;;40.90;4.90;;;19.00;99.70;;;;;;5031134;28;20452;-61
2021/09/23 13:50:35;;;;;;;39.07;5.30;;;19.20;99.70;;;;;;5030906;28;20561;-65
2021/09/23 13:53:04;;;;;;;38.63;5.07;;;19.40;99.70;;;;;;5035169;28;20458;-64
2021/09/23 13:55:31;;;;;;;40.67;5.00;;;19.40;99.70;;;;;;5039156;28;20436;-63
2021/09/23 13:57:58;;;;;;;40.47;5.30;;;19.50;99.70;;;;;;5031212;28;20939;-64
2021/09/23 14:00:24;;;;;;;43.57;6.27;;;19.50;99.70;;;;;;5031098;28;20444;-64
2021/09/23 14:02:51;;;;;;;40.10;6.00;;;19.50;99.70;;;;;;5038400;28;20443;-64
2021/09/23 14:05:18;;;;;;;41.23;5.63;;;19.60;99.70;;;;;;5049603;28;20977;-65
2021/09/23 14:07:46;;;;;;;40.97;6.10;;;19.60;99.70;;;;;;5031308;28;20441;-64
2021/09/23 14:10:15;;;;;;;44.57;5.40;;;19.60;99.70;;;;;;5034354;28;21016;-62
2021/09/23 14:12:42;;;;;;;42.13;6.10;;;19.60;99.70;;;;;;5051131;28;20521;-64
2021/09/23 14:15:11;;;;;;;42.20;5.47;;;19.60;99.70;;;;;;5049276;28;20445;-64
2021/09/23 14:17:38;;;;;;;48.50;5.87;;;19.60;99.70;;;;;;5050551;28;20451;-64
2021/09/23 14:20:05;;;;;;;41.87;5.77;;;19.60;99.70;;;;;;5050102;28;20456;-64
2021/09/23 14:22:32;;;;;;;38.83;5.40;;;19.70;99.70;;;;;;5049114;28;20459;-60
2021/09/23 14:24:59;;;;;;;42.23;5.90;;;19.60;99.70;;;;;;5038545;28;20977;-60
2021/09/23 14:27:27;;;;;;;43.40;6.10;;;19.70;99.70;;;;;;5050976;28;20439;-64
2021/09/23 14:29:54;;;;;;;39.33;5.83;;;19.70;99.70;;;;;;5049524;28;21006;-64
2021/09/23 14:32:21;;;;;;;44.00;6.30;;;19.70;99.70;;;;;;5050777;28;20467;-64
2021/09/23 14:34:48;;;;;;;40.20;6.20;;;19.70;99.70;;;;;;5048308;28;20443;-65
2021/09/23 14:37:15;;;;;;;41.13;6.20;;;19.70;99.70;;;;;;5047668;28;20510;-64
2021/09/23 14:39:44;;;;;;;42.30;5.87;;;19.70;99.70;;;;;;5049807;28;20451;-66
2021/09/23 14:42:12;;;;;;;41.30;6.30;;;19.60;99.70;;;;;;5048833;28;20993;-64
2021/09/23 14:44:40;;;;;;;47.60;6.63;;;19.60;99.70;;;;;;5050916;28;20444;-64
2021/09/23 14:47:07;;;;;;;40.80;6.13;;;19.50;99.70;;;;;;5048356;28;20463;-64
2021/09/23 14:49:33;;;;;;;40.50;5.93;;;19.60;99.70;;;;;;5049810;28;20489;-64
2021/09/23 14:52:00;;;;;;;40.50;6.30;;;19.60;99.70;;;;;;5046156;28;20464;-64
2021/09/23 14:54:27;;;;;;;41.17;6.90;;;19.60;99.70;;;;;;5040976;28;20455;-64
2021/09/23 14:56:53;;;;;;;42.83;6.77;;;19.50;99.70;;;;;;5033156;28;20440;-65
2021/09/23 14:59:20;;;;;;;41.60;6.87;;;19.50;99.70;;;;;;5029990;28;20952;-64
2021/09/23 15:01:51;;;;;;;41.83;6.43;;;19.50;99.70;;;;;;5040641;28;20467;-64
2021/09/23 15:04:18;;;;;;;42.57;6.83;;;19.50;99.70;;;;;;5030413;28;20452;-64
2021/09/23 15:06:45;;;;;;;40.83;7.10;;;19.50;99.70;;;;;;5034476;28;20456;-65
2021/09/23 15:09:13;;;;;;;40.87;7.47;;;19.40;99.70;;;;;;5038148;28;20476;-65
2021/09/23 15:11:40;;;;;;;42.30;6.80;;;19.40;99.70;;;;;;5029875;28;20472;-64
2021/09/23 15:14:07;;;;;;;41.27;7.00;;;19.40;99.70;;;;;;5047842;28;20470;-65
2021/09/23 15:16:33;;;;;;;45.30;8.00;;;19.50;99.70;;;;;;5050354;28;20451;-62
2021/09/23 15:19:02;;;;;;;41.70;7.07;;;19.50;99.70;;;;;;5048545;28;20959;-63
2021/09/23 15:21:28;;;;;;;42.47;7.20;;;19.40;99.70;;;;;;5049570;28;20997;-64
2021/09/23 15:23:57;;;;;;;41.53;7.60;;;19.20;99.70;;;;;;5048942;28;20436;-65
2021/09/23 15:26:24;;;;;;;43.63;7.63;;;19.20;99.70;;;;;;5034164;28;20963;-64
2021/09/23 15:28:50;;;;;;;43.57;7.77;;;19.10;99.70;;;;;;5043532;28;20834;-65
2021/09/23 15:31:17;;;;;;;44.50;8.10;;;19.10;99.70;;;;;;5044997;28;20472;-64
2021/09/23 15:33:44;;;;;;;41.70;8.73;;;19.10;99.70;;;;;;5037740;28;20444;-64
2021/09/23 15:36:14;;;;;;;41.60;6.83;;;19.00;99.70;;;;;;5031221;28;20448;-64
2021/09/23 15:38:40;;;;;;;40.40;7.00;;;19.00;99.70;;;;;;5048867;28;20970;-65
2021/09/23 15:41:07;;;;;;;42.10;8.10;;;19.00;99.70;;;;;;5048878;28;20794;-65
2021/09/23 15:43:34;;;;;;;43.73;7.57;;;18.90;99.70;;;;;;5036084;28;20475;-63
2021/09/23 15:46:01;;;;;;;42.63;9.40;;;18.90;99.70;;;;;;5029156;28;20826;-64
2021/09/23 15:48:28;;;;;;;41.00;6.50;;;18.80;99.70;;;;;;5028908;28;20563;-65
2021/09/23 15:50:55;;;;;;;41.17;6.90;;;18.80;99.70;;;;;;5029617;28;20554;-64
2021/09/23 15:53:23;;;;;;;40.30;6.37;;;18.80;99.70;;;;;;5029436;28;20445;-63
2021/09/23 15:55:50;;;;;;;41.30;6.50;;;18.70;99.70;;;;;;5030049;28;20459;-64
2021/09/23 15:58:17;;;;;;;42.17;7.07;;;18.70;99.70;;;;;;5029090;28;20440;-64
2021/09/23 16:00:43;;;;;;;40.80;5.83;;;18.60;99.70;;;;;;5028414;28;20964;-65
2021/09/23 16:03:10;;;;;;;40.33;5.77;;;18.50;99.70;;;;;;5029606;28;20460;-65
2021/09/23 16:05:37;;;;;;;39.40;5.63;;;18.50;99.70;;;;;;5040454;28;20444;-63
2021/09/23 16:08:07;;;;;;;38.97;4.63;;;18.50;99.70;;;;;;5028473;28;20448;-64
2021/09/23 16:10:37;;;;;;;39.03;4.83;;;18.40;99.70;;;;;;5029223;28;20553;-64
2021/09/23 16:13:04;;;;;;;39.70;4.73;;;18.30;99.70;;;;;;5039621;28;20459;-65
2021/09/23 16:15:31;;;;;;;37.77;4.57;;;18.30;98.60;;;;;;5028392;28;20457;-63
2021/09/23 16:17:58;;;;;;;38.50;4.27;;;18.20;98.80;;;;;;5028555;28;20456;-64
2021/09/23 16:20:25;;;;;;;38.53;4.50;;;18.10;98.40;;;;;;5028862;28;20907;-65
2021/09/23 16:22:53;;;;;;;38.60;4.80;;;18.10;99.70;;;;;;5028734;28;20464;-64
2021/09/23 16:25:20;;;;;;;40.10;5.20;;;18.00;99.70;;;;;;5027995;28;20952;-63
2021/09/23 16:27:48;;;;;;;46.97;5.80;;;17.90;99.70;;;;;;5028966;28;20460;-64
2021/09/23 16:30:17;;;;;;;38.80;4.70;;;17.80;99.70;;;;;;5030838;28;20476;-65
2021/09/23 16:32:44;;;;;;;41.30;4.37;;;17.80;98.50;;;;;;5028908;28;20506;-65
2021/09/23 16:35:12;;;;;;;37.60;4.03;;;17.80;97.70;;;;;;5034118;28;20445;-64
2021/09/23 16:37:39;;;;;;;37.80;4.30;;;17.80;98.40;;;;;;5048519;28;20455;-64
2021/09/23 16:40:08;;;;;;;38.87;4.00;;;17.70;99.30;;;;;;5045694;28;20938;-65
2021/09/23 16:42:35;;;;;;;38.60;4.50;;;17.60;99.70;;;;;;5036871;28;20478;-62